KELK

Elk City Regional Business Airport

Elk City, Oklahoma, USA
METAR KELK 191555Z AUTO 34026G36KT 10SM CLR M03/M10 A3024 RMK AO2 T10291102
Observed Flight Rules
Jan-19 @ 15:55 UTC (44 minutes ago) Visual Flight Rules
Wind Visibility Clouds
340° at 26 knots
 Gusting to 36 knots
10 miles
  • Clear skies
Temperatures Readings
Current -3°C / 27°F
Dewpoint -10°C / 14°F
Humidity 59%
Altimeter 30.24" Hg
Pressure 1024.02 hPa
Elevation 610
METAR KELK 191555Z AUTO 34026G36KT 10SM CLR M03/M10 A3024 RMK AO2 T10291102
Observed Flight Rules
Jan-19 @ 15:55 UTC
(44 minutes ago)
VFR
Wind Visibility
340° at 26 knots
 Gusting to 36 knots
10 miles
Clouds
  • Clear skies
Temperature Dewpoint
-3°C / 27°F -10°C / 14°F
Humidity Altimeter Pressure
59% 30.24" Hg 1024.02 hPa